sensor_id;sensor_type;location;lat;lon;timestamp;temperature;humidity
8459;DHT22;4266;48.816;9.154;2023-01-23T00:00:48;0.80;99.90
8459;DHT22;4266;48.816;9.154;2023-01-23T00:03:14;0.80;99.90
8459;DHT22;4266;48.816;9.154;2023-01-23T00:05:40;0.80;99.90
8459;DHT22;4266;48.816;9.154;2023-01-23T00:08:06;0.80;99.90
8459;DHT22;4266;48.816;9.154;2023-01-23T00:10:33;0.80;99.90
8459;DHT22;4266;48.816;9.154;2023-01-23T00:12:58;0.80;99.90
8459;DHT22;4266;48.816;9.154;2023-01-23T00:15:24;0.80;99.90
8459;DHT22;4266;48.816;9.154;2023-01-23T00:17:50;0.80;99.90
8459;DHT22;4266;48.816;9.154;2023-01-23T00:20:15;0.80;99.90
8459;DHT22;4266;48.816;9.154;2023-01-23T00:22:41;0.80;99.90
8459;DHT22;4266;48.816;9.154;2023-01-23T00:25:07;0.80;99.90
8459;DHT22;4266;48.816;9.154;2023-01-23T00:27:33;0.70;99.90
8459;DHT22;4266;48.816;9.154;2023-01-23T00:30:00;0.70;99.90
8459;DHT22;4266;48.816;9.154;2023-01-23T00:32:26;0.70;99.90
8459;DHT22;4266;48.816;9.154;2023-01-23T00:34:51;0.70;99.90
8459;DHT22;4266;48.816;9.154;2023-01-23T00:37:17;0.70;99.90
8459;DHT22;4266;48.816;9.154;2023-01-23T00:39:43;0.70;99.90
8459;DHT22;4266;48.816;9.154;2023-01-23T00:42:08;0.70;99.90
8459;DHT22;4266;48.816;9.154;2023-01-23T00:44:34;0.70;99.90
8459;DHT22;4266;48.816;9.154;2023-01-23T00:47:00;0.80;99.90
8459;DHT22;4266;48.816;9.154;2023-01-23T00:49:26;0.70;99.90
8459;DHT22;4266;48.816;9.154;2023-01-23T00:51:52;0.70;99.90
8459;DHT22;4266;48.816;9.154;2023-01-23T00:54:18;0.70;99.90
8459;DHT22;4266;48.816;9.154;2023-01-23T00:56:44;0.70;99.90
8459;DHT22;4266;48.816;9.154;2023-01-23T00:59:10;0.70;99.90
8459;DHT22;4266;48.816;9.154;2023-01-23T01:01:36;0.70;99.90
8459;DHT22;4266;48.816;9.154;2023-01-23T01:04:02;0.70;99.90
8459;DHT22;4266;48.816;9.154;2023-01-23T01:06:28;0.60;99.90
8459;DHT22;4266;48.816;9.154;2023-01-23T01:08:53;0.60;99.90
8459;DHT22;4266;48.816;9.154;2023-01-23T01:11:19;0.60;99.90
8459;DHT22;4266;48.816;9.154;2023-01-23T01:13:45;0.70;99.90
8459;DHT22;4266;48.816;9.154;2023-01-23T01:16:11;0.60;99.90
8459;DHT22;4266;48.816;9.154;2023-01-23T01:18:37;0.70;99.90
8459;DHT22;4266;48.816;9.154;2023-01-23T01:21:07;0.70;99.90
8459;DHT22;4266;48.816;9.154;2023-01-23T01:23:31;0.70;99.90
8459;DHT22;4266;48.816;9.154;2023-01-23T01:25:58;0.60;99.90
8459;DHT22;4266;48.816;9.154;2023-01-23T01:28:24;0.60;99.90
8459;DHT22;4266;48.816;9.154;2023-01-23T01:30:49;0.70;99.90
8459;DHT22;4266;48.816;9.154;2023-01-23T01:33:15;0.70;99.90
8459;DHT22;4266;48.816;9.154;2023-01-23T01:35:41;0.70;99.90
8459;DHT22;4266;48.816;9.154;2023-01-23T01:38:06;0.70;99.90
8459;DHT22;4266;48.816;9.154;2023-01-23T01:40:32;0.70;99.90
8459;DHT22;4266;48.816;9.154;2023-01-23T01:42:59;0.70;99.90
8459;DHT22;4266;48.816;9.154;2023-01-23T01:48:03;0.70;99.90
8459;DHT22;4266;48.816;9.154;2023-01-23T01:50:29;0.70;99.90
8459;DHT22;4266;48.816;9.154;2023-01-23T01:52:54;0.70;99.90
8459;DHT22;4266;48.816;9.154;2023-01-23T01:55:21;0.60;99.90
8459;DHT22;4266;48.816;9.154;2023-01-23T01:57:47;0.60;99.90
8459;DHT22;4266;48.816;9.154;2023-01-23T02:00:15;0.70;99.90
8459;DHT22;4266;48.816;9.154;2023-01-23T02:02:42;0.70;99.90
8459;DHT22;4266;48.816;9.154;2023-01-23T02:05:09;0.60;99.90
8459;DHT22;4266;48.816;9.154;2023-01-23T02:07:41;0.60;99.90
8459;DHT22;4266;48.816;9.154;2023-01-23T02:10:05;0.60;99.90
8459;DHT22;4266;48.816;9.154;2023-01-23T02:12:32;0.60;99.90
8459;DHT22;4266;48.816;9.154;2023-01-23T02:14:58;0.60;99.90
8459;DHT22;4266;48.816;9.154;2023-01-23T02:17:24;0.60;99.90
8459;DHT22;4266;48.816;9.154;2023-01-23T02:20:24;0.60;99.90
8459;DHT22;4266;48.816;9.154;2023-01-23T02:28:16;0.70;99.90
8459;DHT22;4266;48.816;9.154;2023-01-23T02:30:43;0.70;99.90
8459;DHT22;4266;48.816;9.154;2023-01-23T02:33:09;0.70;99.90
8459;DHT22;4266;48.816;9.154;2023-01-23T02:35:35;0.70;99.90
8459;DHT22;4266;48.816;9.154;2023-01-23T02:38:01;0.60;99.90
8459;DHT22;4266;48.816;9.154;2023-01-23T02:40:31;0.70;99.90
8459;DHT22;4266;48.816;9.154;2023-01-23T02:42:55;0.70;99.90
8459;DHT22;4266;48.816;9.154;2023-01-23T02:45:21;0.80;99.90
8459;DHT22;4266;48.816;9.154;2023-01-23T02:47:46;0.80;99.90
8459;DHT22;4266;48.816;9.154;2023-01-23T02:50:12;0.70;99.90
8459;DHT22;4266;48.816;9.154;2023-01-23T02:52:39;0.70;99.90
8459;DHT22;4266;48.816;9.154;2023-01-23T02:55:05;0.70;99.90
8459;DHT22;4266;48.816;9.154;2023-01-23T02:57:31;0.70;99.90
8459;DHT22;4266;48.816;9.154;2023-01-23T02:59:56;0.80;99.90
8459;DHT22;4266;48.816;9.154;2023-01-23T03:02:29;0.60;99.90
8459;DHT22;4266;48.816;9.154;2023-01-23T03:04:55;0.60;99.90
8459;DHT22;4266;48.816;9.154;2023-01-23T03:07:20;0.70;99.90
8459;DHT22;4266;48.816;9.154;2023-01-23T03:09:46;0.70;99.90
8459;DHT22;4266;48.816;9.154;2023-01-23T03:12:12;0.60;99.90
8459;DHT22;4266;48.816;9.154;2023-01-23T03:14:38;0.70;99.90
8459;DHT22;4266;48.816;9.154;2023-01-23T03:17:04;0.80;99.90
8459;DHT22;4266;48.816;9.154;2023-01-23T03:19:31;0.70;99.90
8459;DHT22;4266;48.816;9.154;2023-01-23T03:21:57;0.80;99.90
8459;DHT22;4266;48.816;9.154;2023-01-23T03:24:23;0.70;99.90
8459;DHT22;4266;48.816;9.154;2023-01-23T03:26:49;0.80;99.90
8459;DHT22;4266;48.816;9.154;2023-01-23T03:29:19;0.70;99.90
8459;DHT22;4266;48.816;9.154;2023-01-23T03:31:49;0.70;99.90
8459;DHT22;4266;48.816;9.154;2023-01-23T03:34:14;0.70;99.90
8459;DHT22;4266;48.816;9.154;2023-01-23T03:36:41;0.70;99.90
8459;DHT22;4266;48.816;9.154;2023-01-23T03:39:06;0.70;99.90
8459;DHT22;4266;48.816;9.154;2023-01-23T03:41:38;0.60;99.90
8459;DHT22;4266;48.816;9.154;2023-01-23T03:44:04;0.70;99.90
8459;DHT22;4266;48.816;9.154;2023-01-23T03:46:30;0.60;99.90
8459;DHT22;4266;48.816;9.154;2023-01-23T03:48:55;0.60;99.90
8459;DHT22;4266;48.816;9.154;2023-01-23T03:51:22;0.60;99.90
8459;DHT22;4266;48.816;9.154;2023-01-23T03:53:47;0.60;99.90
8459;DHT22;4266;48.816;9.154;2023-01-23T03:56:14;0.60;99.90
8459;DHT22;4266;48.816;9.154;2023-01-23T03:58:39;0.60;99.90
8459;DHT22;4266;48.816;9.154;2023-01-23T04:01:06;0.60;99.90
8459;DHT22;4266;48.816;9.154;2023-01-23T04:03:32;0.60;99.90
8459;DHT22;4266;48.816;9.154;2023-01-23T04:05:58;0.60;99.90
8459;DHT22;4266;48.816;9.154;2023-01-23T04:08:23;0.60;99.90
8459;DHT22;4266;48.816;9.154;2023-01-23T04:10:49;0.60;99.90
8459;DHT22;4266;48.816;9.154;2023-01-23T04:13:14;0.60;99.90
8459;DHT22;4266;48.816;9.154;2023-01-23T04:15:40;0.70;99.90
8459;DHT22;4266;48.816;9.154;2023-01-23T04:18:06;0.60;99.90
8459;DHT22;4266;48.816;9.154;2023-01-23T04:20:31;0.60;99.90
8459;DHT22;4266;48.816;9.154;2023-01-23T04:22:58;0.60;99.90
8459;DHT22;4266;48.816;9.154;2023-01-23T04:25:23;0.60;99.90
8459;DHT22;4266;48.816;9.154;2023-01-23T04:27:49;0.60;99.90
8459;DHT22;4266;48.816;9.154;2023-01-23T04:30:15;0.60;99.90
8459;DHT22;4266;48.816;9.154;2023-01-23T04:32:42;0.70;99.90
8459;DHT22;4266;48.816;9.154;2023-01-23T04:35:08;0.60;99.90
8459;DHT22;4266;48.816;9.154;2023-01-23T04:37:34;0.60;99.90
8459;DHT22;4266;48.816;9.154;2023-01-23T04:40:00;0.60;99.90
8459;DHT22;4266;48.816;9.154;2023-01-23T04:42:25;0.60;99.90
8459;DHT22;4266;48.816;9.154;2023-01-23T04:44:51;0.60;99.90
8459;DHT22;4266;48.816;9.154;2023-01-23T04:47:17;0.50;99.90
8459;DHT22;4266;48.816;9.154;2023-01-23T04:49:43;0.50;99.90
8459;DHT22;4266;48.816;9.154;2023-01-23T04:52:09;0.50;99.90
8459;DHT22;4266;48.816;9.154;2023-01-23T04:54:34;0.60;99.90
8459;DHT22;4266;48.816;9.154;2023-01-23T04:57:00;0.50;99.90
8459;DHT22;4266;48.816;9.154;2023-01-23T04:59:26;0.50;99.90
8459;DHT22;4266;48.816;9.154;2023-01-23T05:01:51;0.50;99.90
8459;DHT22;4266;48.816;9.154;2023-01-23T05:04:17;0.40;99.90
8459;DHT22;4266;48.816;9.154;2023-01-23T05:06:43;0.50;99.90
8459;DHT22;4266;48.816;9.154;2023-01-23T05:09:08;0.50;99.90
8459;DHT22;4266;48.816;9.154;2023-01-23T05:11:34;0.40;99.90
8459;DHT22;4266;48.816;9.154;2023-01-23T05:14:00;0.50;99.90
8459;DHT22;4266;48.816;9.154;2023-01-23T05:16:25;0.50;99.90
8459;DHT22;4266;48.816;9.154;2023-01-23T05:18:52;0.40;99.90
8459;DHT22;4266;48.816;9.154;2023-01-23T05:21:17;0.50;99.90
8459;DHT22;4266;48.816;9.154;2023-01-23T05:23:44;0.40;99.90
8459;DHT22;4266;48.816;9.154;2023-01-23T05:26:09;0.40;99.90
8459;DHT22;4266;48.816;9.154;2023-01-23T05:28:35;0.50;99.90
8459;DHT22;4266;48.816;9.154;2023-01-23T05:31:01;0.50;99.90
8459;DHT22;4266;48.816;9.154;2023-01-23T05:33:26;0.50;99.90
8459;DHT22;4266;48.816;9.154;2023-01-23T05:35:52;0.50;99.90
8459;DHT22;4266;48.816;9.154;2023-01-23T05:38:18;0.50;99.90
8459;DHT22;4266;48.816;9.154;2023-01-23T05:40:43;0.60;99.90
8459;DHT22;4266;48.816;9.154;2023-01-23T05:43:12;0.60;99.90
8459;DHT22;4266;48.816;9.154;2023-01-23T05:45:35;0.60;99.90
8459;DHT22;4266;48.816;9.154;2023-01-23T05:48:01;0.60;99.90
8459;DHT22;4266;48.816;9.154;2023-01-23T05:50:27;0.60;99.90
8459;DHT22;4266;48.816;9.154;2023-01-23T05:52:52;0.70;99.90
8459;DHT22;4266;48.816;9.154;2023-01-23T05:55:19;0.70;99.90
8459;DHT22;4266;48.816;9.154;2023-01-23T05:57:45;0.70;99.90
8459;DHT22;4266;48.816;9.154;2023-01-23T06:00:12;0.70;99.90
8459;DHT22;4266;48.816;9.154;2023-01-23T06:02:37;0.70;99.90
8459;DHT22;4266;48.816;9.154;2023-01-23T06:05:04;0.70;99.90
8459;DHT22;4266;48.816;9.154;2023-01-23T06:07:30;0.70;99.90
8459;DHT22;4266;48.816;9.154;2023-01-23T06:09:56;0.70;99.90
8459;DHT22;4266;48.816;9.154;2023-01-23T06:12:22;0.70;99.90
8459;DHT22;4266;48.816;9.154;2023-01-23T06:14:48;0.70;99.90
8459;DHT22;4266;48.816;9.154;2023-01-23T06:17:13;0.70;99.90
8459;DHT22;4266;48.816;9.154;2023-01-23T06:19:40;0.80;99.90
8459;DHT22;4266;48.816;9.154;2023-01-23T06:22:05;0.80;99.90
8459;DHT22;4266;48.816;9.154;2023-01-23T06:24:32;0.70;99.90
8459;DHT22;4266;48.816;9.154;2023-01-23T06:26:58;0.60;99.90
8459;DHT22;4266;48.816;9.154;2023-01-23T06:29:24;0.60;99.90
8459;DHT22;4266;48.816;9.154;2023-01-23T06:31:50;0.50;99.90
8459;DHT22;4266;48.816;9.154;2023-01-23T06:34:15;0.70;99.90
8459;DHT22;4266;48.816;9.154;2023-01-23T06:36:41;0.60;99.90
8459;DHT22;4266;48.816;9.154;2023-01-23T06:39:07;0.60;99.90
8459;DHT22;4266;48.816;9.154;2023-01-23T06:41:32;0.50;99.90
8459;DHT22;4266;48.816;9.154;2023-01-23T06:43:58;0.70;99.90
8459;DHT22;4266;48.816;9.154;2023-01-23T06:46:24;0.60;99.90
8459;DHT22;4266;48.816;9.154;2023-01-23T06:48:51;0.60;99.90
8459;DHT22;4266;48.816;9.154;2023-01-23T06:51:15;0.50;99.90
8459;DHT22;4266;48.816;9.154;2023-01-23T06:53:41;0.50;99.90
8459;DHT22;4266;48.816;9.154;2023-01-23T06:56:07;0.60;99.90
8459;DHT22;4266;48.816;9.154;2023-01-23T06:58:33;0.60;99.90
8459;DHT22;4266;48.816;9.154;2023-01-23T07:00:59;0.70;99.90
8459;DHT22;4266;48.816;9.154;2023-01-23T07:03:24;0.60;99.90
8459;DHT22;4266;48.816;9.154;2023-01-23T07:05:50;0.60;99.90
8459;DHT22;4266;48.816;9.154;2023-01-23T07:08:16;0.60;99.90
8459;DHT22;4266;48.816;9.154;2023-01-23T07:10:41;0.60;99.90
8459;DHT22;4266;48.816;9.154;2023-01-23T07:13:08;0.60;99.90
8459;DHT22;4266;48.816;9.154;2023-01-23T07:15:33;0.60;99.90
8459;DHT22;4266;48.816;9.154;2023-01-23T07:17:59;0.60;99.90
8459;DHT22;4266;48.816;9.154;2023-01-23T07:20:25;0.70;99.90
8459;DHT22;4266;48.816;9.154;2023-01-23T07:22:53;0.70;99.90
8459;DHT22;4266;48.816;9.154;2023-01-23T07:25:19;0.70;99.90
8459;DHT22;4266;48.816;9.154;2023-01-23T07:27:45;0.70;99.90
8459;DHT22;4266;48.816;9.154;2023-01-23T07:30:11;0.70;99.90
8459;DHT22;4266;48.816;9.154;2023-01-23T07:32:38;0.70;99.90
8459;DHT22;4266;48.816;9.154;2023-01-23T07:35:04;0.70;99.90
8459;DHT22;4266;48.816;9.154;2023-01-23T07:37:30;0.60;99.90
8459;DHT22;4266;48.816;9.154;2023-01-23T07:39:56;0.70;99.90
8459;DHT22;4266;48.816;9.154;2023-01-23T07:42:22;0.60;99.90
8459;DHT22;4266;48.816;9.154;2023-01-23T07:44:48;0.60;99.90
8459;DHT22;4266;48.816;9.154;2023-01-23T07:47:14;0.70;99.90
8459;DHT22;4266;48.816;9.154;2023-01-23T07:49:40;0.70;99.90
8459;DHT22;4266;48.816;9.154;2023-01-23T07:52:05;0.70;99.90
8459;DHT22;4266;48.816;9.154;2023-01-23T07:54:31;0.80;99.90
8459;DHT22;4266;48.816;9.154;2023-01-23T07:56:57;0.80;99.90
8459;DHT22;4266;48.816;9.154;2023-01-23T07:59:23;0.80;99.90
8459;DHT22;4266;48.816;9.154;2023-01-23T08:01:48;0.80;99.90
8459;DHT22;4266;48.816;9.154;2023-01-23T08:04:14;0.80;99.90
8459;DHT22;4266;48.816;9.154;2023-01-23T08:06:40;0.80;99.90
8459;DHT22;4266;48.816;9.154;2023-01-23T08:09:05;0.80;99.90
8459;DHT22;4266;48.816;9.154;2023-01-23T08:11:31;0.90;99.90
8459;DHT22;4266;48.816;9.154;2023-01-23T08:13:57;1.00;99.90
8459;DHT22;4266;48.816;9.154;2023-01-23T08:16:23;1.10;99.90
8459;DHT22;4266;48.816;9.154;2023-01-23T08:18:48;1.00;99.90
8459;DHT22;4266;48.816;9.154;2023-01-23T08:21:14;1.00;99.90
8459;DHT22;4266;48.816;9.154;2023-01-23T08:23:40;1.00;99.90
8459;DHT22;4266;48.816;9.154;2023-01-23T08:26:07;1.00;99.90
8459;DHT22;4266;48.816;9.154;2023-01-23T08:28:31;1.10;99.90
8459;DHT22;4266;48.816;9.154;2023-01-23T08:30:59;1.20;99.90
8459;DHT22;4266;48.816;9.154;2023-01-23T08:33:24;1.20;99.90
8459;DHT22;4266;48.816;9.154;2023-01-23T08:35:52;1.20;99.90
8459;DHT22;4266;48.816;9.154;2023-01-23T08:38:17;1.20;99.90
8459;DHT22;4266;48.816;9.154;2023-01-23T08:40:43;1.10;99.90
8459;DHT22;4266;48.816;9.154;2023-01-23T08:43:08;1.30;99.90
8459;DHT22;4266;48.816;9.154;2023-01-23T08:45:34;1.30;99.90
8459;DHT22;4266;48.816;9.154;2023-01-23T08:48:00;1.40;99.90
8459;DHT22;4266;48.816;9.154;2023-01-23T08:50:26;1.30;99.40
8459;DHT22;4266;48.816;9.154;2023-01-23T08:52:51;1.40;98.40
8459;DHT22;4266;48.816;9.154;2023-01-23T08:55:17;1.50;97.50
8459;DHT22;4266;48.816;9.154;2023-01-23T08:57:43;1.60;97.20
8459;DHT22;4266;48.816;9.154;2023-01-23T09:00:09;1.80;96.50
8459;DHT22;4266;48.816;9.154;2023-01-23T09:02:36;3.20;94.90
8459;DHT22;4266;48.816;9.154;2023-01-23T09:05:09;3.20;94.80
8459;DHT22;4266;48.816;9.154;2023-01-23T09:07:42;5.30;92.60
8459;DHT22;4266;48.816;9.154;2023-01-23T09:12:50;3.90;90.80
8459;DHT22;4266;48.816;9.154;2023-01-23T09:15:16;3.60;91.20
8459;DHT22;4266;48.816;9.154;2023-01-23T09:17:41;3.50;91.20
8459;DHT22;4266;48.816;9.154;2023-01-23T09:20:08;3.40;91.00
8459;DHT22;4266;48.816;9.154;2023-01-23T09:22:34;4.20;90.70
8459;DHT22;4266;48.816;9.154;2023-01-23T09:25:00;5.60;90.00
8459;DHT22;4266;48.816;9.154;2023-01-23T09:27:26;5.40;88.30
8459;DHT22;4266;48.816;9.154;2023-01-23T09:29:51;4.50;88.00
8459;DHT22;4266;48.816;9.154;2023-01-23T09:32:17;3.60;89.10
8459;DHT22;4266;48.816;9.154;2023-01-23T09:34:43;3.40;89.70
8459;DHT22;4266;48.816;9.154;2023-01-23T09:37:08;2.90;90.50
8459;DHT22;4266;48.816;9.154;2023-01-23T09:39:35;2.40;90.70
8459;DHT22;4266;48.816;9.154;2023-01-23T09:42:02;2.40;90.70
8459;DHT22;4266;48.816;9.154;2023-01-23T09:44:35;2.30;90.60
8459;DHT22;4266;48.816;9.154;2023-01-23T09:46:58;2.30;90.70
8459;DHT22;4266;48.816;9.154;2023-01-23T09:49:26;2.20;90.90
8459;DHT22;4266;48.816;9.154;2023-01-23T09:51:57;2.00;91.00
8459;DHT22;4266;48.816;9.154;2023-01-23T09:56:55;2.10;91.30
8459;DHT22;4266;48.816;9.154;2023-01-23T09:59:28;2.00;91.50
8459;DHT22;4266;48.816;9.154;2023-01-23T10:01:52;1.90;91.80
8459;DHT22;4266;48.816;9.154;2023-01-23T10:04:18;1.90;92.20
8459;DHT22;4266;48.816;9.154;2023-01-23T10:06:49;1.90;92.10
8459;DHT22;4266;48.816;9.154;2023-01-23T10:09:16;2.00;92.00
8459;DHT22;4266;48.816;9.154;2023-01-23T10:12:55;2.10;91.90
8459;DHT22;4266;48.816;9.154;2023-01-23T10:14:49;2.30;91.90
8459;DHT22;4266;48.816;9.154;2023-01-23T10:17:34;2.50;91.60
8459;DHT22;4266;48.816;9.154;2023-01-23T10:20:14;2.50;91.60
8459;DHT22;4266;48.816;9.154;2023-01-23T10:25:25;2.40;91.70
8459;DHT22;4266;48.816;9.154;2023-01-23T10:27:51;2.20;91.90
8459;DHT22;4266;48.816;9.154;2023-01-23T10:30:20;2.30;91.70
8459;DHT22;4266;48.816;9.154;2023-01-23T10:32:56;3.00;91.40
8459;DHT22;4266;48.816;9.154;2023-01-23T10:35:31;3.00;91.40
8459;DHT22;4266;48.816;9.154;2023-01-23T10:40:47;4.60;89.80
8459;DHT22;4266;48.816;9.154;2023-01-23T10:43:19;4.10;90.00
8459;DHT22;4266;48.816;9.154;2023-01-23T10:45:45;3.90;90.00
8459;DHT22;4266;48.816;9.154;2023-01-23T10:48:50;3.50;90.10
8459;DHT22;4266;48.816;9.154;2023-01-23T10:50:58;3.20;90.20
8459;DHT22;4266;48.816;9.154;2023-01-23T10:53:24;2.90;90.40
8459;DHT22;4266;48.816;9.154;2023-01-23T10:55:51;2.90;90.70
8459;DHT22;4266;48.816;9.154;2023-01-23T10:58:31;2.90;90.70
8459;DHT22;4266;48.816;9.154;2023-01-23T11:00:55;2.50;90.80
8459;DHT22;4266;48.816;9.154;2023-01-23T11:03:31;2.30;91.00
8459;DHT22;4266;48.816;9.154;2023-01-23T11:06:08;2.30;91.00
8459;DHT22;4266;48.816;9.154;2023-01-23T11:08:35;2.20;91.40
8459;DHT22;4266;48.816;9.154;2023-01-23T11:11:17;2.20;91.70
8459;DHT22;4266;48.816;9.154;2023-01-23T11:13:42;2.10;91.60
8459;DHT22;4266;48.816;9.154;2023-01-23T11:16:12;2.20;91.70
8459;DHT22;4266;48.816;9.154;2023-01-23T11:18:39;2.30;91.80
8459;DHT22;4266;48.816;9.154;2023-01-23T11:21:05;2.20;91.80
8459;DHT22;4266;48.816;9.154;2023-01-23T11:23:31;2.20;91.80
8459;DHT22;4266;48.816;9.154;2023-01-23T11:25:57;2.30;91.80
8459;DHT22;4266;48.816;9.154;2023-01-23T11:28:48;2.30;91.60
8459;DHT22;4266;48.816;9.154;2023-01-23T11:31:14;2.30;91.60
8459;DHT22;4266;48.816;9.154;2023-01-23T11:33:49;2.30;91.50
8459;DHT22;4266;48.816;9.154;2023-01-23T11:36:41;2.40;91.80
8459;DHT22;4266;48.816;9.154;2023-01-23T11:39:12;2.40;91.80
8459;DHT22;4266;48.816;9.154;2023-01-23T11:41:38;2.50;92.00
8459;DHT22;4266;48.816;9.154;2023-01-23T11:44:08;2.50;91.90
8459;DHT22;4266;48.816;9.154;2023-01-23T11:46:45;2.50;91.90
8459;DHT22;4266;48.816;9.154;2023-01-23T11:49:14;2.50;91.90
8459;DHT22;4266;48.816;9.154;2023-01-23T11:52:03;2.30;91.70
8459;DHT22;4266;48.816;9.154;2023-01-23T11:54:43;2.50;92.10
8459;DHT22;4266;48.816;9.154;2023-01-23T11:59:56;2.60;91.70
8459;DHT22;4266;48.816;9.154;2023-01-23T12:03:13;2.40;91.90
8459;DHT22;4266;48.816;9.154;2023-01-23T12:05:23;2.40;92.00
8459;DHT22;4266;48.816;9.154;2023-01-23T12:08:15;2.30;92.00
8459;DHT22;4266;48.816;9.154;2023-01-23T12:10:48;2.30;92.00
8459;DHT22;4266;48.816;9.154;2023-01-23T12:15:59;2.30;92.20
8459;DHT22;4266;48.816;9.154;2023-01-23T12:18:36;2.40;92.40
8459;DHT22;4266;48.816;9.154;2023-01-23T12:21:10;2.40;92.30
8459;DHT22;4266;48.816;9.154;2023-01-23T12:23:54;2.40;92.40
8459;DHT22;4266;48.816;9.154;2023-01-23T12:26:16;2.50;92.60
8459;DHT22;4266;48.816;9.154;2023-01-23T12:29:22;2.70;92.40
8459;DHT22;4266;48.816;9.154;2023-01-23T12:31:43;2.70;92.10
8459;DHT22;4266;48.816;9.154;2023-01-23T12:34:27;3.60;91.70
8459;DHT22;4266;48.816;9.154;2023-01-23T12:39:54;4.10;91.50
8459;DHT22;4266;48.816;9.154;2023-01-23T12:45:16;5.30;90.20
8459;DHT22;4266;48.816;9.154;2023-01-23T12:47:47;5.30;89.00
8459;DHT22;4266;48.816;9.154;2023-01-23T12:50:23;5.50;89.10
8459;DHT22;4266;48.816;9.154;2023-01-23T12:52:54;5.50;89.10
8459;DHT22;4266;48.816;9.154;2023-01-23T12:55:20;5.70;88.90
8459;DHT22;4266;48.816;9.154;2023-01-23T12:57:45;5.20;89.20
8459;DHT22;4266;48.816;9.154;2023-01-23T13:00:22;5.20;89.10
8459;DHT22;4266;48.816;9.154;2023-01-23T13:02:54;5.10;89.20
8459;DHT22;4266;48.816;9.154;2023-01-23T13:05:22;4.80;89.20
8459;DHT22;4266;48.816;9.154;2023-01-23T13:07:55;4.50;90.00
8459;DHT22;4266;48.816;9.154;2023-01-23T13:10:28;4.60;90.00
8459;DHT22;4266;48.816;9.154;2023-01-23T13:12:53;4.60;90.00
8459;DHT22;4266;48.816;9.154;2023-01-23T13:15:19;4.60;90.00
8459;DHT22;4266;48.816;9.154;2023-01-23T13:17:46;4.80;90.10
8459;DHT22;4266;48.816;9.154;2023-01-23T13:20:22;4.90;90.00
8459;DHT22;4266;48.816;9.154;2023-01-23T13:22:54;5.70;88.60
8459;DHT22;4266;48.816;9.154;2023-01-23T13:25:19;5.70;88.60
8459;DHT22;4266;48.816;9.154;2023-01-23T13:27:53;5.90;89.10
8459;DHT22;4266;48.816;9.154;2023-01-23T13:30:36;6.50;87.40
8459;DHT22;4266;48.816;9.154;2023-01-23T13:35:50;5.80;88.60
8459;DHT22;4266;48.816;9.154;2023-01-23T13:38:32;5.30;88.50
8459;DHT22;4266;48.816;9.154;2023-01-23T13:41:30;5.20;89.00
8459;DHT22;4266;48.816;9.154;2023-01-23T13:44:16;4.60;89.40
8459;DHT22;4266;48.816;9.154;2023-01-23T13:46:55;4.60;89.40
8459;DHT22;4266;48.816;9.154;2023-01-23T13:49:30;4.50;90.10
8459;DHT22;4266;48.816;9.154;2023-01-23T13:51:57;4.30;90.10
8459;DHT22;4266;48.816;9.154;2023-01-23T13:54:27;4.10;90.30
8459;DHT22;4266;48.816;9.154;2023-01-23T13:56:56;4.10;90.30
8459;DHT22;4266;48.816;9.154;2023-01-23T13:59:34;4.10;90.30
8459;DHT22;4266;48.816;9.154;2023-01-23T14:02:03;4.00;90.50
8459;DHT22;4266;48.816;9.154;2023-01-23T14:04:32;3.80;90.70
8459;DHT22;4266;48.816;9.154;2023-01-23T14:07:12;3.80;90.80
8459;DHT22;4266;48.816;9.154;2023-01-23T14:09:30;3.70;90.90
8459;DHT22;4266;48.816;9.154;2023-01-23T14:11:59;3.60;91.10
8459;DHT22;4266;48.816;9.154;2023-01-23T14:14:24;3.60;91.10
8459;DHT22;4266;48.816;9.154;2023-01-23T14:16:55;3.70;91.30
8459;DHT22;4266;48.816;9.154;2023-01-23T14:19:25;3.70;91.30
8459;DHT22;4266;48.816;9.154;2023-01-23T14:21:51;3.60;91.40
8459;DHT22;4266;48.816;9.154;2023-01-23T14:24:24;3.40;91.60
8459;DHT22;4266;48.816;9.154;2023-01-23T14:26:50;3.40;91.60
8459;DHT22;4266;48.816;9.154;2023-01-23T14:29:21;3.30;91.60
8459;DHT22;4266;48.816;9.154;2023-01-23T14:31:46;3.40;91.70
8459;DHT22;4266;48.816;9.154;2023-01-23T14:34:15;3.10;91.90
8459;DHT22;4266;48.816;9.154;2023-01-23T14:36:43;3.10;92.20
8459;DHT22;4266;48.816;9.154;2023-01-23T14:39:12;2.90;92.20
8459;DHT22;4266;48.816;9.154;2023-01-23T14:41:38;2.90;92.50
8459;DHT22;4266;48.816;9.154;2023-01-23T14:44:00;2.90;92.60
8459;DHT22;4266;48.816;9.154;2023-01-23T14:46:35;2.80;92.80
8459;DHT22;4266;48.816;9.154;2023-01-23T14:48:59;2.80;92.80
8459;DHT22;4266;48.816;9.154;2023-01-23T14:51:26;2.90;92.90
8459;DHT22;4266;48.816;9.154;2023-01-23T14:53:57;2.80;93.10
8459;DHT22;4266;48.816;9.154;2023-01-23T14:56:25;2.80;93.10
8459;DHT22;4266;48.816;9.154;2023-01-23T14:58:49;2.70;93.40
8459;DHT22;4266;48.816;9.154;2023-01-23T15:01:15;2.70;93.60
8459;DHT22;4266;48.816;9.154;2023-01-23T15:03:43;2.70;93.50
8459;DHT22;4266;48.816;9.154;2023-01-23T15:06:11;2.70;93.60
8459;DHT22;4266;48.816;9.154;2023-01-23T15:08:34;2.70;93.80
8459;DHT22;4266;48.816;9.154;2023-01-23T15:11:00;2.70;93.70
8459;DHT22;4266;48.816;9.154;2023-01-23T15:13:44;2.70;94.00
8459;DHT22;4266;48.816;9.154;2023-01-23T15:16:19;2.70;93.90
8459;DHT22;4266;48.816;9.154;2023-01-23T15:18:48;2.70;94.00
8459;DHT22;4266;48.816;9.154;2023-01-23T15:21:17;2.60;94.10
8459;DHT22;4266;48.816;9.154;2023-01-23T15:23:37;2.50;94.30
8459;DHT22;4266;48.816;9.154;2023-01-23T15:26:28;2.50;94.30
8459;DHT22;4266;48.816;9.154;2023-01-23T15:28:53;2.40;94.60
8459;DHT22;4266;48.816;9.154;2023-01-23T15:34:26;2.50;94.90
8459;DHT22;4266;48.816;9.154;2023-01-23T15:37:25;2.40;94.50
8459;DHT22;4266;48.816;9.154;2023-01-23T15:39:36;2.40;94.70
8459;DHT22;4266;48.816;9.154;2023-01-23T15:42:03;2.40;95.00
8459;DHT22;4266;48.816;9.154;2023-01-23T15:44:29;2.40;95.00
8459;DHT22;4266;48.816;9.154;2023-01-23T15:46:55;2.40;94.90
8459;DHT22;4266;48.816;9.154;2023-01-23T15:49:20;2.40;94.90
8459;DHT22;4266;48.816;9.154;2023-01-23T15:51:46;2.30;95.20
8459;DHT22;4266;48.816;9.154;2023-01-23T15:54:19;2.20;95.60
8459;DHT22;4266;48.816;9.154;2023-01-23T15:56:42;2.30;95.40
8459;DHT22;4266;48.816;9.154;2023-01-23T15:59:12;2.30;95.40
8459;DHT22;4266;48.816;9.154;2023-01-23T16:01:37;2.20;95.50
8459;DHT22;4266;48.816;9.154;2023-01-23T16:04:02;2.20;95.50
8459;DHT22;4266;48.816;9.154;2023-01-23T16:06:28;2.20;95.70
8459;DHT22;4266;48.816;9.154;2023-01-23T16:08:54;2.20;95.80
8459;DHT22;4266;48.816;9.154;2023-01-23T16:11:19;2.20;95.80
8459;DHT22;4266;48.816;9.154;2023-01-23T16:13:45;2.20;95.90
8459;DHT22;4266;48.816;9.154;2023-01-23T16:16:12;2.20;96.00
8459;DHT22;4266;48.816;9.154;2023-01-23T16:18:37;2.20;96.00
8459;DHT22;4266;48.816;9.154;2023-01-23T16:21:05;2.20;96.10
8459;DHT22;4266;48.816;9.154;2023-01-23T16:23:30;2.20;96.10
8459;DHT22;4266;48.816;9.154;2023-01-23T16:25:56;2.30;96.20
8459;DHT22;4266;48.816;9.154;2023-01-23T16:28:23;2.20;95.80
8459;DHT22;4266;48.816;9.154;2023-01-23T16:30:48;2.20;95.90
8459;DHT22;4266;48.816;9.154;2023-01-23T16:33:13;2.30;96.20
8459;DHT22;4266;48.816;9.154;2023-01-23T16:35:39;2.20;95.90
8459;DHT22;4266;48.816;9.154;2023-01-23T16:38:05;2.30;96.20
8459;DHT22;4266;48.816;9.154;2023-01-23T16:40:31;2.30;96.20
8459;DHT22;4266;48.816;9.154;2023-01-23T16:42:56;2.20;96.40
8459;DHT22;4266;48.816;9.154;2023-01-23T16:45:23;2.20;96.60
8459;DHT22;4266;48.816;9.154;2023-01-23T16:47:47;2.30;96.60
8459;DHT22;4266;48.816;9.154;2023-01-23T16:50:15;2.20;96.50
8459;DHT22;4266;48.816;9.154;2023-01-23T16:52:40;2.20;96.90
8459;DHT22;4266;48.816;9.154;2023-01-23T16:55:15;2.20;96.80
8459;DHT22;4266;48.816;9.154;2023-01-23T16:57:36;2.30;96.80